sensor_id;sensor_type;location;lat;lon;timestamp;P1;durP1;ratioP1;P2;durP2;ratioP2
29196;SDS011;62796;42.654;23.316;2023-04-29T00:01:04;22.25;;;10.13;;
29196;SDS011;62796;42.654;23.316;2023-04-29T00:03:30;17.63;;;9.98;;
29196;SDS011;62796;42.654;23.316;2023-04-29T00:05:57;22.60;;;11.88;;
29196;SDS011;62796;42.654;23.316;2023-04-29T00:08:23;22.85;;;10.80;;
29196;SDS011;62796;42.654;23.316;2023-04-29T00:10:49;22.00;;;10.93;;
29196;SDS011;62796;42.654;23.316;2023-04-29T00:13:14;20.73;;;9.65;;
29196;SDS011;62796;42.654;23.316;2023-04-29T00:15:41;23.38;;;9.88;;
29196;SDS011;62796;42.654;23.316;2023-04-29T00:18:07;14.02;;;7.95;;
29196;SDS011;62796;42.654;23.316;2023-04-29T00:20:33;13.45;;;8.70;;
29196;SDS011;62796;42.654;23.316;2023-04-29T00:22:58;16.67;;;8.32;;
29196;SDS011;62796;42.654;23.316;2023-04-29T00:25:24;13.60;;;8.43;;
29196;SDS011;62796;42.654;23.316;2023-04-29T00:27:49;12.98;;;8.77;;
29196;SDS011;62796;42.654;23.316;2023-04-29T00:30:15;15.95;;;8.70;;
29196;SDS011;62796;42.654;23.316;2023-04-29T00:32:40;19.45;;;8.95;;
29196;SDS011;62796;42.654;23.316;2023-04-29T00:35:06;20.20;;;8.93;;
29196;SDS011;62796;42.654;23.316;2023-04-29T00:37:31;16.63;;;9.60;;
29196;SDS011;62796;42.654;23.316;2023-04-29T00:39:57;17.13;;;9.55;;
29196;SDS011;62796;42.654;23.316;2023-04-29T00:42:23;14.57;;;8.98;;
29196;SDS011;62796;42.654;23.316;2023-04-29T00:44:50;17.38;;;8.75;;
29196;SDS011;62796;42.654;23.316;2023-04-29T00:47:15;16.40;;;8.85;;
29196;SDS011;62796;42.654;23.316;2023-04-29T00:49:41;17.13;;;9.13;;
29196;SDS011;62796;42.654;23.316;2023-04-29T00:52:07;20.00;;;9.10;;
29196;SDS011;62796;42.654;23.316;2023-04-29T00:54:36;22.52;;;9.40;;
29196;SDS011;62796;42.654;23.316;2023-04-29T00:57:02;21.42;;;9.68;;
29196;SDS011;62796;42.654;23.316;2023-04-29T00:59:30;15.88;;;8.85;;
29196;SDS011;62796;42.654;23.316;2023-04-29T01:02:00;15.13;;;9.13;;
29196;SDS011;62796;42.654;23.316;2023-04-29T01:04:27;24.25;;;10.52;;
29196;SDS011;62796;42.654;23.316;2023-04-29T01:12:14;15.20;;;8.65;;
29196;SDS011;62796;42.654;23.316;2023-04-29T01:15:11;20.60;;;9.35;;
29196;SDS011;62796;42.654;23.316;2023-04-29T01:18:09;18.13;;;9.30;;
29196;SDS011;62796;42.654;23.316;2023-04-29T01:20:31;17.42;;;9.57;;
29196;SDS011;62796;42.654;23.316;2023-04-29T01:22:59;16.60;;;9.93;;
29196;SDS011;62796;42.654;23.316;2023-04-29T01:25:24;17.52;;;10.43;;
29196;SDS011;62796;42.654;23.316;2023-04-29T01:30:56;20.73;;;9.25;;
29196;SDS011;62796;42.654;23.316;2023-04-29T01:41:13;19.05;;;9.98;;
29196;SDS011;62796;42.654;23.316;2023-04-29T01:43:42;18.60;;;10.23;;
29196;SDS011;62796;42.654;23.316;2023-04-29T01:46:08;18.58;;;10.00;;
29196;SDS011;62796;42.654;23.316;2023-04-29T01:48:35;15.02;;;8.55;;
29196;SDS011;62796;42.654;23.316;2023-04-29T01:51:01;13.32;;;8.35;;
29196;SDS011;62796;42.654;23.316;2023-04-29T01:53:26;16.08;;;8.65;;
29196;SDS011;62796;42.654;23.316;2023-04-29T01:55:52;16.38;;;8.88;;
29196;SDS011;62796;42.654;23.316;2023-04-29T01:58:18;18.67;;;8.60;;
29196;SDS011;62796;42.654;23.316;2023-04-29T02:00:43;16.08;;;9.00;;
29196;SDS011;62796;42.654;23.316;2023-04-29T02:03:08;14.13;;;8.40;;
29196;SDS011;62796;42.654;23.316;2023-04-29T02:05:34;15.23;;;8.52;;
29196;SDS011;62796;42.654;23.316;2023-04-29T02:08:00;19.40;;;8.80;;
29196;SDS011;62796;42.654;23.316;2023-04-29T02:10:26;15.43;;;8.50;;
29196;SDS011;62796;42.654;23.316;2023-04-29T02:12:52;16.58;;;8.30;;
29196;SDS011;62796;42.654;23.316;2023-04-29T02:15:18;12.90;;;7.90;;
29196;SDS011;62796;42.654;23.316;2023-04-29T02:17:43;10.48;;;7.55;;
29196;SDS011;62796;42.654;23.316;2023-04-29T02:20:09;14.68;;;7.65;;
29196;SDS011;62796;42.654;23.316;2023-04-29T02:22:34;13.57;;;8.52;;
29196;SDS011;62796;42.654;23.316;2023-04-29T02:25:00;14.30;;;7.88;;
29196;SDS011;62796;42.654;23.316;2023-04-29T02:27:26;12.57;;;8.18;;
29196;SDS011;62796;42.654;23.316;2023-04-29T02:29:51;15.10;;;8.73;;
29196;SDS011;62796;42.654;23.316;2023-04-29T02:32:17;14.43;;;8.55;;
29196;SDS011;62796;42.654;23.316;2023-04-29T02:34:44;14.65;;;8.73;;
29196;SDS011;62796;42.654;23.316;2023-04-29T02:37:10;18.05;;;9.82;;
29196;SDS011;62796;42.654;23.316;2023-04-29T02:39:35;14.27;;;8.75;;
29196;SDS011;62796;42.654;23.316;2023-04-29T02:42:01;16.83;;;8.82;;
29196;SDS011;62796;42.654;23.316;2023-04-29T02:44:27;19.95;;;9.98;;
29196;SDS011;62796;42.654;23.316;2023-04-29T02:46:52;18.42;;;9.27;;
29196;SDS011;62796;42.654;23.316;2023-04-29T02:49:18;17.25;;;9.48;;
29196;SDS011;62796;42.654;23.316;2023-04-29T02:51:43;19.45;;;10.10;;
29196;SDS011;62796;42.654;23.316;2023-04-29T02:54:09;16.42;;;10.18;;
29196;SDS011;62796;42.654;23.316;2023-04-29T02:56:36;30.85;;;11.70;;
29196;SDS011;62796;42.654;23.316;2023-04-29T02:59:01;30.15;;;11.73;;
29196;SDS011;62796;42.654;23.316;2023-04-29T03:01:27;23.30;;;11.50;;
29196;SDS011;62796;42.654;23.316;2023-04-29T03:03:53;22.98;;;10.63;;
29196;SDS011;62796;42.654;23.316;2023-04-29T03:06:18;21.13;;;10.52;;
29196;SDS011;62796;42.654;23.316;2023-04-29T03:08:44;24.63;;;10.63;;
29196;SDS011;62796;42.654;23.316;2023-04-29T03:11:10;36.22;;;14.82;;
29196;SDS011;62796;42.654;23.316;2023-04-29T03:13:35;38.55;;;15.63;;
29196;SDS011;62796;42.654;23.316;2023-04-29T03:16:01;32.58;;;14.05;;
29196;SDS011;62796;42.654;23.316;2023-04-29T03:18:27;25.08;;;13.68;;
29196;SDS011;62796;42.654;23.316;2023-04-29T03:20:52;30.15;;;12.70;;
29196;SDS011;62796;42.654;23.316;2023-04-29T03:23:18;25.17;;;12.15;;
29196;SDS011;62796;42.654;23.316;2023-04-29T03:25:43;26.48;;;12.02;;
29196;SDS011;62796;42.654;23.316;2023-04-29T03:28:08;29.88;;;13.10;;
29196;SDS011;62796;42.654;23.316;2023-04-29T03:30:34;26.15;;;13.40;;
29196;SDS011;62796;42.654;23.316;2023-04-29T03:33:00;29.02;;;13.82;;
29196;SDS011;62796;42.654;23.316;2023-04-29T03:35:26;31.35;;;13.63;;
29196;SDS011;62796;42.654;23.316;2023-04-29T03:37:51;32.55;;;13.45;;
29196;SDS011;62796;42.654;23.316;2023-04-29T03:40:17;28.20;;;13.05;;
29196;SDS011;62796;42.654;23.316;2023-04-29T03:42:42;30.75;;;14.00;;
29196;SDS011;62796;42.654;23.316;2023-04-29T03:45:08;28.40;;;13.45;;
29196;SDS011;62796;42.654;23.316;2023-04-29T03:47:37;24.65;;;11.90;;
29196;SDS011;62796;42.654;23.316;2023-04-29T03:50:02;24.75;;;12.48;;
29196;SDS011;62796;42.654;23.316;2023-04-29T03:52:28;27.83;;;14.48;;
29196;SDS011;62796;42.654;23.316;2023-04-29T03:54:54;23.63;;;12.65;;
29196;SDS011;62796;42.654;23.316;2023-04-29T03:57:19;19.70;;;11.18;;
29196;SDS011;62796;42.654;23.316;2023-04-29T03:59:44;18.40;;;10.38;;
29196;SDS011;62796;42.654;23.316;2023-04-29T04:02:14;19.02;;;10.70;;
29196;SDS011;62796;42.654;23.316;2023-04-29T04:04:40;19.80;;;10.38;;
29196;SDS011;62796;42.654;23.316;2023-04-29T04:07:06;18.83;;;10.82;;
29196;SDS011;62796;42.654;23.316;2023-04-29T04:09:31;18.27;;;10.98;;
29196;SDS011;62796;42.654;23.316;2023-04-29T04:11:57;17.45;;;11.10;;
29196;SDS011;62796;42.654;23.316;2023-04-29T04:14:22;19.60;;;10.15;;
29196;SDS011;62796;42.654;23.316;2023-04-29T04:16:48;20.75;;;11.23;;
29196;SDS011;62796;42.654;23.316;2023-04-29T04:19:14;17.98;;;11.43;;
29196;SDS011;62796;42.654;23.316;2023-04-29T04:21:40;18.23;;;10.57;;
29196;SDS011;62796;42.654;23.316;2023-04-29T04:24:06;18.67;;;10.55;;
29196;SDS011;62796;42.654;23.316;2023-04-29T04:26:32;16.17;;;11.02;;
29196;SDS011;62796;42.654;23.316;2023-04-29T04:28:57;18.33;;;10.75;;
29196;SDS011;62796;42.654;23.316;2023-04-29T04:31:23;16.50;;;10.52;;
29196;SDS011;62796;42.654;23.316;2023-04-29T04:33:48;15.30;;;10.65;;
29196;SDS011;62796;42.654;23.316;2023-04-29T04:36:14;16.13;;;10.77;;
29196;SDS011;62796;42.654;23.316;2023-04-29T04:38:39;18.85;;;11.10;;
29196;SDS011;62796;42.654;23.316;2023-04-29T04:41:05;16.73;;;11.38;;
29196;SDS011;62796;42.654;23.316;2023-04-29T04:43:32;15.27;;;10.40;;
29196;SDS011;62796;42.654;23.316;2023-04-29T04:45:57;16.55;;;11.10;;
29196;SDS011;62796;42.654;23.316;2023-04-29T04:48:23;28.98;;;12.73;;
29196;SDS011;62796;42.654;23.316;2023-04-29T04:50:48;23.17;;;11.52;;
29196;SDS011;62796;42.654;23.316;2023-04-29T04:53:14;23.85;;;11.55;;
29196;SDS011;62796;42.654;23.316;2023-04-29T04:55:39;25.00;;;11.38;;
29196;SDS011;62796;42.654;23.316;2023-04-29T04:58:05;27.92;;;11.43;;
29196;SDS011;62796;42.654;23.316;2023-04-29T05:00:30;20.63;;;11.18;;
29196;SDS011;62796;42.654;23.316;2023-04-29T05:02:55;23.67;;;11.07;;
29196;SDS011;62796;42.654;23.316;2023-04-29T05:05:21;23.38;;;11.57;;
29196;SDS011;62796;42.654;23.316;2023-04-29T05:07:46;23.75;;;11.85;;
29196;SDS011;62796;42.654;23.316;2023-04-29T05:10:12;26.65;;;12.25;;
29196;SDS011;62796;42.654;23.316;2023-04-29T05:12:38;17.35;;;11.50;;
29196;SDS011;62796;42.654;23.316;2023-04-29T05:15:03;15.90;;;11.10;;
29196;SDS011;62796;42.654;23.316;2023-04-29T05:17:29;21.92;;;11.60;;
29196;SDS011;62796;42.654;23.316;2023-04-29T05:19:54;19.23;;;11.60;;
29196;SDS011;62796;42.654;23.316;2023-04-29T05:22:20;18.35;;;10.50;;
29196;SDS011;62796;42.654;23.316;2023-04-29T05:24:45;19.40;;;11.02;;
29196;SDS011;62796;42.654;23.316;2023-04-29T05:27:12;22.50;;;11.43;;
29196;SDS011;62796;42.654;23.316;2023-04-29T05:29:38;23.17;;;11.10;;
29196;SDS011;62796;42.654;23.316;2023-04-29T05:32:04;17.50;;;10.75;;
29196;SDS011;62796;42.654;23.316;2023-04-29T05:34:29;17.67;;;10.82;;
29196;SDS011;62796;42.654;23.316;2023-04-29T05:36:55;14.88;;;10.77;;
29196;SDS011;62796;42.654;23.316;2023-04-29T05:39:21;18.50;;;10.75;;
29196;SDS011;62796;42.654;23.316;2023-04-29T05:41:46;21.88;;;11.15;;
29196;SDS011;62796;42.654;23.316;2023-04-29T05:44:12;18.27;;;10.35;;
29196;SDS011;62796;42.654;23.316;2023-04-29T05:46:37;18.70;;;10.50;;
29196;SDS011;62796;42.654;23.316;2023-04-29T05:49:03;18.55;;;9.98;;
29196;SDS011;62796;42.654;23.316;2023-04-29T05:51:28;18.23;;;10.02;;
29196;SDS011;62796;42.654;23.316;2023-04-29T05:53:55;21.95;;;10.90;;
29196;SDS011;62796;42.654;23.316;2023-04-29T05:56:23;20.20;;;10.57;;
29196;SDS011;62796;42.654;23.316;2023-04-29T05:58:48;20.40;;;9.15;;
29196;SDS011;62796;42.654;23.316;2023-04-29T06:01:14;13.35;;;9.35;;
29196;SDS011;62796;42.654;23.316;2023-04-29T06:03:41;16.80;;;9.98;;
29196;SDS011;62796;42.654;23.316;2023-04-29T06:06:06;15.55;;;9.23;;
29196;SDS011;62796;42.654;23.316;2023-04-29T06:08:32;17.15;;;9.40;;
29196;SDS011;62796;42.654;23.316;2023-04-29T06:10:58;15.18;;;8.52;;
29196;SDS011;62796;42.654;23.316;2023-04-29T06:13:23;20.25;;;11.13;;
29196;SDS011;62796;42.654;23.316;2023-04-29T06:15:49;16.77;;;8.85;;
29196;SDS011;62796;42.654;23.316;2023-04-29T06:18:14;14.48;;;7.85;;
29196;SDS011;62796;42.654;23.316;2023-04-29T06:20:40;22.15;;;8.27;;
29196;SDS011;62796;42.654;23.316;2023-04-29T06:23:05;19.48;;;7.97;;
29196;SDS011;62796;42.654;23.316;2023-04-29T06:25:31;16.85;;;7.60;;
29196;SDS011;62796;42.654;23.316;2023-04-29T06:27:57;17.83;;;7.82;;
29196;SDS011;62796;42.654;23.316;2023-04-29T06:30:22;12.68;;;7.45;;
29196;SDS011;62796;42.654;23.316;2023-04-29T06:32:47;13.05;;;7.80;;
29196;SDS011;62796;42.654;23.316;2023-04-29T06:35:14;13.18;;;8.05;;
29196;SDS011;62796;42.654;23.316;2023-04-29T06:37:39;15.85;;;7.28;;
29196;SDS011;62796;42.654;23.316;2023-04-29T06:40:05;16.90;;;8.30;;
29196;SDS011;62796;42.654;23.316;2023-04-29T06:42:31;12.57;;;8.18;;
29196;SDS011;62796;42.654;23.316;2023-04-29T06:44:56;14.75;;;7.95;;
29196;SDS011;62796;42.654;23.316;2023-04-29T06:47:21;17.45;;;8.43;;
29196;SDS011;62796;42.654;23.316;2023-04-29T06:49:47;16.73;;;8.55;;
29196;SDS011;62796;42.654;23.316;2023-04-29T06:52:13;19.55;;;8.65;;
29196;SDS011;62796;42.654;23.316;2023-04-29T06:54:38;21.58;;;9.40;;
29196;SDS011;62796;42.654;23.316;2023-04-29T06:57:04;14.93;;;9.00;;
29196;SDS011;62796;42.654;23.316;2023-04-29T06:59:30;16.27;;;9.00;;
29196;SDS011;62796;42.654;23.316;2023-04-29T07:01:56;15.55;;;9.73;;
29196;SDS011;62796;42.654;23.316;2023-04-29T07:04:22;13.65;;;10.27;;
29196;SDS011;62796;42.654;23.316;2023-04-29T07:06:47;15.60;;;10.48;;
29196;SDS011;62796;42.654;23.316;2023-04-29T07:09:13;15.57;;;9.90;;
29196;SDS011;62796;42.654;23.316;2023-04-29T07:11:38;15.40;;;9.70;;
29196;SDS011;62796;42.654;23.316;2023-04-29T07:14:04;16.73;;;9.63;;
29196;SDS011;62796;42.654;23.316;2023-04-29T07:16:31;21.42;;;10.93;;
29196;SDS011;62796;42.654;23.316;2023-04-29T07:18:57;23.73;;;10.32;;
29196;SDS011;62796;42.654;23.316;2023-04-29T07:21:22;15.13;;;9.93;;
29196;SDS011;62796;42.654;23.316;2023-04-29T07:23:48;17.02;;;9.98;;
29196;SDS011;62796;42.654;23.316;2023-04-29T07:26:14;16.17;;;9.48;;
29196;SDS011;62796;42.654;23.316;2023-04-29T07:28:41;13.27;;;9.45;;
29196;SDS011;62796;42.654;23.316;2023-04-29T07:31:08;13.02;;;8.75;;
29196;SDS011;62796;42.654;23.316;2023-04-29T07:33:34;13.93;;;9.23;;
29196;SDS011;62796;42.654;23.316;2023-04-29T07:35:59;14.25;;;8.93;;
29196;SDS011;62796;42.654;23.316;2023-04-29T07:38:26;18.50;;;9.75;;
29196;SDS011;62796;42.654;23.316;2023-04-29T07:40:51;23.02;;;10.00;;
29196;SDS011;62796;42.654;23.316;2023-04-29T07:43:17;17.58;;;9.95;;
29196;SDS011;62796;42.654;23.316;2023-04-29T07:45:43;14.18;;;9.15;;
29196;SDS011;62796;42.654;23.316;2023-04-29T07:48:08;15.23;;;9.13;;
29196;SDS011;62796;42.654;23.316;2023-04-29T07:50:34;15.50;;;9.30;;
29196;SDS011;62796;42.654;23.316;2023-04-29T07:53:00;14.70;;;8.38;;
29196;SDS011;62796;42.654;23.316;2023-04-29T07:55:27;17.80;;;9.20;;
29196;SDS011;62796;42.654;23.316;2023-04-29T07:57:55;18.42;;;8.93;;
29196;SDS011;62796;42.654;23.316;2023-04-29T08:00:21;15.50;;;9.48;;
29196;SDS011;62796;42.654;23.316;2023-04-29T08:02:53;16.48;;;9.38;;
29196;SDS011;62796;42.654;23.316;2023-04-29T08:05:19;16.75;;;8.38;;
29196;SDS011;62796;42.654;23.316;2023-04-29T08:07:46;17.73;;;8.95;;
29196;SDS011;62796;42.654;23.316;2023-04-29T08:10:15;17.20;;;9.48;;
29196;SDS011;62796;42.654;23.316;2023-04-29T08:12:44;16.30;;;8.48;;
29196;SDS011;62796;42.654;23.316;2023-04-29T08:15:09;13.30;;;7.05;;
29196;SDS011;62796;42.654;23.316;2023-04-29T08:17:35;13.75;;;7.00;;
29196;SDS011;62796;42.654;23.316;2023-04-29T08:20:01;11.07;;;6.57;;
29196;SDS011;62796;42.654;23.316;2023-04-29T08:22:26;10.23;;;6.70;;
29196;SDS011;62796;42.654;23.316;2023-04-29T08:24:51;12.35;;;7.10;;
29196;SDS011;62796;42.654;23.316;2023-04-29T08:27:17;17.02;;;7.15;;
29196;SDS011;62796;42.654;23.316;2023-04-29T08:29:42;15.20;;;7.60;;
29196;SDS011;62796;42.654;23.316;2023-04-29T08:32:08;12.52;;;7.47;;
29196;SDS011;62796;42.654;23.316;2023-04-29T08:34:33;16.20;;;7.25;;
29196;SDS011;62796;42.654;23.316;2023-04-29T08:37:01;11.60;;;5.53;;
29196;SDS011;62796;42.654;23.316;2023-04-29T08:39:27;8.85;;;5.72;;
29196;SDS011;62796;42.654;23.316;2023-04-29T08:41:57;11.75;;;5.65;;
29196;SDS011;62796;42.654;23.316;2023-04-29T08:44:27;9.85;;;5.63;;
29196;SDS011;62796;42.654;23.316;2023-04-29T08:46:54;9.68;;;5.95;;
29196;SDS011;62796;42.654;23.316;2023-04-29T08:49:20;11.60;;;5.65;;
29196;SDS011;62796;42.654;23.316;2023-04-29T08:51:48;11.93;;;7.13;;
29196;SDS011;62796;42.654;23.316;2023-04-29T08:54:15;11.57;;;6.47;;
29196;SDS011;62796;42.654;23.316;2023-04-29T08:56:42;9.75;;;6.13;;
29196;SDS011;62796;42.654;23.316;2023-04-29T08:59:09;9.70;;;6.20;;
29196;SDS011;62796;42.654;23.316;2023-04-29T09:01:38;9.88;;;5.55;;
29196;SDS011;62796;42.654;23.316;2023-04-29T09:05:07;13.82;;;5.50;;
29196;SDS011;62796;42.654;23.316;2023-04-29T09:07:27;11.52;;;5.32;;
29196;SDS011;62796;42.654;23.316;2023-04-29T09:09:55;12.27;;;5.50;;
29196;SDS011;62796;42.654;23.316;2023-04-29T09:12:21;9.88;;;4.60;;
29196;SDS011;62796;42.654;23.316;2023-04-29T09:14:47;9.40;;;5.20;;
29196;SDS011;62796;42.654;23.316;2023-04-29T09:17:12;8.80;;;4.78;;
29196;SDS011;62796;42.654;23.316;2023-04-29T09:19:40;8.82;;;4.80;;
29196;SDS011;62796;42.654;23.316;2023-04-29T09:22:06;9.20;;;6.00;;
29196;SDS011;62796;42.654;23.316;2023-04-29T09:24:32;10.50;;;5.47;;
29196;SDS011;62796;42.654;23.316;2023-04-29T09:26:57;9.40;;;5.20;;
29196;SDS011;62796;42.654;23.316;2023-04-29T09:29:24;9.60;;;4.90;;
29196;SDS011;62796;42.654;23.316;2023-04-29T09:31:49;13.35;;;5.22;;
29196;SDS011;62796;42.654;23.316;2023-04-29T09:34:18;9.90;;;5.32;;
29196;SDS011;62796;42.654;23.316;2023-04-29T09:36:55;7.60;;;5.10;;
29196;SDS011;62796;42.654;23.316;2023-04-29T09:39:23;10.85;;;5.97;;
29196;SDS011;62796;42.654;23.316;2023-04-29T09:44:14;13.90;;;7.28;;
29196;SDS011;62796;42.654;23.316;2023-04-29T09:46:40;15.02;;;6.45;;
29196;SDS011;62796;42.654;23.316;2023-04-29T09:49:20;12.30;;;6.75;;
29196;SDS011;62796;42.654;23.316;2023-04-29T09:51:55;13.05;;;7.20;;
29196;SDS011;62796;42.654;23.316;2023-04-29T09:54:25;14.18;;;6.57;;
29196;SDS011;62796;42.654;23.316;2023-04-29T09:56:54;10.02;;;6.65;;
29196;SDS011;62796;42.654;23.316;2023-04-29T09:59:20;11.10;;;6.55;;
29196;SDS011;62796;42.654;23.316;2023-04-29T10:01:47;11.40;;;6.82;;
29196;SDS011;62796;42.654;23.316;2023-04-29T10:04:14;15.25;;;7.32;;
29196;SDS011;62796;42.654;23.316;2023-04-29T10:06:41;15.35;;;8.63;;
29196;SDS011;62796;42.654;23.316;2023-04-29T10:09:09;19.90;;;8.57;;
29196;SDS011;62796;42.654;23.316;2023-04-29T10:11:41;11.45;;;8.32;;
29196;SDS011;62796;42.654;23.316;2023-04-29T10:14:12;16.20;;;8.27;;
29196;SDS011;62796;42.654;23.316;2023-04-29T10:17:07;19.92;;;9.30;;
29196;SDS011;62796;42.654;23.316;2023-04-29T10:19:39;14.18;;;8.00;;
29196;SDS011;62796;42.654;23.316;2023-04-29T10:22:21;13.97;;;8.17;;
29196;SDS011;62796;42.654;23.316;2023-04-29T10:25:09;16.80;;;8.23;;
29196;SDS011;62796;42.654;23.316;2023-04-29T10:27:36;25.33;;;8.25;;
29196;SDS011;62796;42.654;23.316;2023-04-29T10:30:02;13.20;;;7.20;;
29196;SDS011;62796;42.654;23.316;2023-04-29T10:32:29;21.83;;;7.47;;
29196;SDS011;62796;42.654;23.316;2023-04-29T10:34:56;10.88;;;6.75;;
29196;SDS011;62796;42.654;23.316;2023-04-29T10:37:23;11.95;;;6.45;;
29196;SDS011;62796;42.654;23.316;2023-04-29T10:40:50;17.38;;;7.05;;
29196;SDS011;62796;42.654;23.316;2023-04-29T10:43:04;14.30;;;7.47;;
29196;SDS011;62796;42.654;23.316;2023-04-29T10:45:30;14.85;;;7.13;;
29196;SDS011;62796;42.654;23.316;2023-04-29T10:53:19;11.57;;;5.90;;
29196;SDS011;62796;42.654;23.316;2023-04-29T10:55:52;14.43;;;6.32;;
29196;SDS011;62796;42.654;23.316;2023-04-29T10:58:36;13.25;;;6.60;;
29196;SDS011;62796;42.654;23.316;2023-04-29T11:01:02;12.10;;;5.50;;
29196;SDS011;62796;42.654;23.316;2023-04-29T11:17:01;10.43;;;5.60;;
29196;SDS011;62796;42.654;23.316;2023-04-29T11:19:35;8.80;;;5.10;;
29196;SDS011;62796;42.654;23.316;2023-04-29T11:24:36;8.18;;;3.95;;
29196;SDS011;62796;42.654;23.316;2023-04-29T11:27:12;9.20;;;3.97;;
29196;SDS011;62796;42.654;23.316;2023-04-29T11:29:39;9.20;;;3.92;;
29196;SDS011;62796;42.654;23.316;2023-04-29T11:32:06;13.50;;;5.60;;
29196;SDS011;62796;42.654;23.316;2023-04-29T11:34:32;15.00;;;5.50;;
29196;SDS011;62796;42.654;23.316;2023-04-29T11:36:57;14.32;;;4.35;;
29196;SDS011;62796;42.654;23.316;2023-04-29T11:39:23;10.82;;;3.20;;
29196;SDS011;62796;42.654;23.316;2023-04-29T11:41:48;7.53;;;2.97;;
29196;SDS011;62796;42.654;23.316;2023-04-29T11:44:14;4.28;;;2.45;;
29196;SDS011;62796;42.654;23.316;2023-04-29T11:46:46;7.15;;;2.67;;
29196;SDS011;62796;42.654;23.316;2023-04-29T11:49:12;8.65;;;2.85;;
29196;SDS011;62796;42.654;23.316;2023-04-29T11:51:37;4.60;;;2.53;;
29196;SDS011;62796;42.654;23.316;2023-04-29T11:54:03;11.25;;;3.22;;
29196;SDS011;62796;42.654;23.316;2023-04-29T11:56:28;9.95;;;3.97;;
29196;SDS011;62796;42.654;23.316;2023-04-29T11:58:54;10.07;;;3.42;;
29196;SDS011;62796;42.654;23.316;2023-04-29T12:01:20;16.30;;;4.75;;
29196;SDS011;62796;42.654;23.316;2023-04-29T12:03:49;15.07;;;4.60;;
29196;SDS011;62796;42.654;23.316;2023-04-29T12:06:15;9.57;;;4.38;;
29196;SDS011;62796;42.654;23.316;2023-04-29T12:08:40;10.27;;;4.00;;
29196;SDS011;62796;42.654;23.316;2023-04-29T12:11:06;8.57;;;3.40;;
29196;SDS011;62796;42.654;23.316;2023-04-29T12:13:32;8.85;;;3.35;;
29196;SDS011;62796;42.654;23.316;2023-04-29T12:16:00;11.80;;;4.25;;
29196;SDS011;62796;42.654;23.316;2023-04-29T12:18:26;11.88;;;3.70;;
29196;SDS011;62796;42.654;23.316;2023-04-29T12:20:53;16.35;;;5.30;;
29196;SDS011;62796;42.654;23.316;2023-04-29T12:23:21;13.60;;;3.95;;
29196;SDS011;62796;42.654;23.316;2023-04-29T12:25:58;11.00;;;4.93;;
29196;SDS011;62796;42.654;23.316;2023-04-29T12:28:25;10.07;;;3.38;;
29196;SDS011;62796;42.654;23.316;2023-04-29T12:30:51;15.95;;;4.03;;
29196;SDS011;62796;42.654;23.316;2023-04-29T12:33:25;12.13;;;3.03;;
29196;SDS011;62796;42.654;23.316;2023-04-29T12:35:53;8.13;;;3.30;;
29196;SDS011;62796;42.654;23.316;2023-04-29T12:38:24;5.47;;;2.78;;
29196;SDS011;62796;42.654;23.316;2023-04-29T12:40:54;13.40;;;4.88;;
29196;SDS011;62796;42.654;23.316;2023-04-29T12:43:30;14.77;;;5.28;;
29196;SDS011;62796;42.654;23.316;2023-04-29T12:46:01;9.30;;;4.35;;
29196;SDS011;62796;42.654;23.316;2023-04-29T12:48:30;6.78;;;3.10;;
29196;SDS011;62796;42.654;23.316;2023-04-29T12:50:56;12.88;;;3.90;;
29196;SDS011;62796;42.654;23.316;2023-04-29T12:53:23;10.15;;;3.13;;
29196;SDS011;62796;42.654;23.316;2023-04-29T12:55:50;7.80;;;3.38;;
29196;SDS011;62796;42.654;23.316;2023-04-29T12:58:16;8.57;;;3.47;;
29196;SDS011;62796;42.654;23.316;2023-04-29T13:00:41;9.02;;;3.15;;
29196;SDS011;62796;42.654;23.316;2023-04-29T13:03:07;12.05;;;2.90;;
29196;SDS011;62796;42.654;23.316;2023-04-29T13:05:32;9.02;;;3.17;;
29196;SDS011;62796;42.654;23.316;2023-04-29T13:07:58;8.35;;;3.13;;
29196;SDS011;62796;42.654;23.316;2023-04-29T13:10:23;9.27;;;3.00;;
29196;SDS011;62796;42.654;23.316;2023-04-29T13:12:49;7.32;;;2.83;;
29196;SDS011;62796;42.654;23.316;2023-04-29T13:15:15;9.13;;;3.10;;
29196;SDS011;62796;42.654;23.316;2023-04-29T13:17:40;11.43;;;3.75;;
29196;SDS011;62796;42.654;23.316;2023-04-29T13:20:06;6.70;;;2.92;;
29196;SDS011;62796;42.654;23.316;2023-04-29T13:22:32;5.38;;;3.00;;
29196;SDS011;62796;42.654;23.316;2023-04-29T13:24:58;3.88;;;2.53;;
29196;SDS011;62796;42.654;23.316;2023-04-29T13:27:23;5.40;;;2.80;;
29196;SDS011;62796;42.654;23.316;2023-04-29T13:29:49;6.53;;;2.95;;
29196;SDS011;62796;42.654;23.316;2023-04-29T13:32:15;9.65;;;3.00;;
29196;SDS011;62796;42.654;23.316;2023-04-29T13:34:40;5.30;;;2.70;;
29196;SDS011;62796;42.654;23.316;2023-04-29T13:37:10;4.57;;;2.90;;
29196;SDS011;62796;42.654;23.316;2023-04-29T13:39:36;5.57;;;3.00;;
29196;SDS011;62796;42.654;23.316;2023-04-29T13:42:01;5.10;;;2.80;;
29196;SDS011;62796;42.654;23.316;2023-04-29T13:44:27;6.57;;;2.80;;
29196;SDS011;62796;42.654;23.316;2023-04-29T13:46:53;5.53;;;3.10;;
29196;SDS011;62796;42.654;23.316;2023-04-29T13:49:19;4.80;;;2.63;;
29196;SDS011;62796;42.654;23.316;2023-04-29T13:51:45;2.58;;;1.92;;
29196;SDS011;62796;42.654;23.316;2023-04-29T13:54:10;4.55;;;2.85;;
29196;SDS011;62796;42.654;23.316;2023-04-29T13:56:35;4.78;;;2.53;;
29196;SDS011;62796;42.654;23.316;2023-04-29T13:59:01;4.32;;;2.30;;
29196;SDS011;62796;42.654;23.316;2023-04-29T14:01:26;4.55;;;2.55;;
29196;SDS011;62796;42.654;23.316;2023-04-29T14:03:52;4.30;;;2.33;;
29196;SDS011;62796;42.654;23.316;2023-04-29T14:06:17;4.55;;;2.58;;
29196;SDS011;62796;42.654;23.316;2023-04-29T14:08:43;4.30;;;2.50;;
29196;SDS011;62796;42.654;23.316;2023-04-29T14:11:09;3.85;;;2.40;;
29196;SDS011;62796;42.654;23.316;2023-04-29T14:13:34;11.05;;;2.80;;
29196;SDS011;62796;42.654;23.316;2023-04-29T14:15:59;3.97;;;2.42;;
29196;SDS011;62796;42.654;23.316;2023-04-29T14:18:27;5.43;;;3.10;;
29196;SDS011;62796;42.654;23.316;2023-04-29T14:20:54;5.40;;;2.70;;
29196;SDS011;62796;42.654;23.316;2023-04-29T14:23:20;6.90;;;2.75;;
29196;SDS011;62796;42.654;23.316;2023-04-29T14:25:46;10.27;;;2.88;;
29196;SDS011;62796;42.654;23.316;2023-04-29T14:28:11;4.13;;;2.58;;
29196;SDS011;62796;42.654;23.316;2023-04-29T14:30:37;8.15;;;2.75;;
29196;SDS011;62796;42.654;23.316;2023-04-29T14:33:02;12.45;;;2.75;;
29196;SDS011;62796;42.654;23.316;2023-04-29T14:35:28;6.47;;;2.20;;
29196;SDS011;62796;42.654;23.316;2023-04-29T14:37:55;4.25;;;2.50;;
29196;SDS011;62796;42.654;23.316;2023-04-29T14:40:20;5.93;;;2.80;;
29196;SDS011;62796;42.654;23.316;2023-04-29T14:42:45;6.85;;;3.13;;
29196;SDS011;62796;42.654;23.316;2023-04-29T14:45:11;5.18;;;3.47;;
29196;SDS011;62796;42.654;23.316;2023-04-29T14:47:36;5.60;;;3.38;;
29196;SDS011;62796;42.654;23.316;2023-04-29T14:50:02;6.97;;;3.58;;
29196;SDS011;62796;42.654;23.316;2023-04-29T14:52:29;7.85;;;4.20;;
29196;SDS011;62796;42.654;23.316;2023-04-29T14:54:55;9.75;;;3.58;;
29196;SDS011;62796;42.654;23.316;2023-04-29T14:57:20;8.55;;;3.97;;
29196;SDS011;62796;42.654;23.316;2023-04-29T14:59:46;4.15;;;3.15;;